createdAt,value
2022-10-22T00:01:00.202Z,18.60
2022-10-22T00:03:28.249Z,21.63
2022-10-22T00:05:56.258Z,20.23
2022-10-22T00:08:25.627Z,15.70
2022-10-22T00:10:53.849Z,15.90
2022-10-22T00:13:22.071Z,17.47
2022-10-22T00:15:50.110Z,14.07
2022-10-22T00:18:18.193Z,12.83
2022-10-22T00:20:46.144Z,15.67
2022-10-22T00:23:14.086Z,14.00
2022-10-22T00:25:43.371Z,15.27
2022-10-22T00:28:12.575Z,14.53
2022-10-22T00:30:40.607Z,14.27
2022-10-22T00:33:08.554Z,15.47
2022-10-22T00:35:36.511Z,14.50
2022-10-22T00:38:04.455Z,13.73
2022-10-22T00:40:32.715Z,16.00
2022-10-22T00:43:02.053Z,14.43
2022-10-22T00:45:30.804Z,17.23
2022-10-22T00:48:02.794Z,15.43
2022-10-22T00:50:35.331Z,15.57
2022-10-22T00:53:05.297Z,12.40
2022-10-22T00:55:34.795Z,12.20
2022-10-22T00:58:04.498Z,11.93
2022-10-22T01:00:32.926Z,12.70
2022-10-22T01:03:01.279Z,14.27
2022-10-22T01:05:30.591Z,13.37
2022-10-22T01:07:58.843Z,13.70
2022-10-22T01:10:40.095Z,13.73
2022-10-22T01:13:20.158Z,13.67
2022-10-22T01:15:57.770Z,14.30
2022-10-22T01:18:32.796Z,16.93
2022-10-22T01:21:09.678Z,13.60
2022-10-22T01:24:01.426Z,16.00
2022-10-22T01:26:40.908Z,14.13
2022-10-22T01:29:14.431Z,14.17
2022-10-22T01:31:48.251Z,12.90
2022-10-22T01:34:19.378Z,17.33
2022-10-22T01:36:49.229Z,18.77
2022-10-22T01:39:18.380Z,15.67
2022-10-22T01:41:47.083Z,14.97
2022-10-22T01:44:27.959Z,15.90
2022-10-22T01:47:05.631Z,12.87
2022-10-22T01:49:45.590Z,12.40
2022-10-22T01:52:26.047Z,18.63
2022-10-22T01:55:03.796Z,15.63
2022-10-22T01:57:43.251Z,17.37
2022-10-22T02:00:15.765Z,18.00
2022-10-22T02:02:51.930Z,15.50
2022-10-22T02:05:25.120Z,12.80
2022-10-22T02:07:56.450Z,13.17
2022-10-22T02:10:26.006Z,15.97
2022-10-22T02:12:56.972Z,14.73
2022-10-22T02:15:28.764Z,16.40
2022-10-22T02:17:59.591Z,18.43
2022-10-22T02:20:29.924Z,13.83
2022-10-22T02:22:58.503Z,19.23
2022-10-22T02:25:30.317Z,17.13
2022-10-22T02:28:05.486Z,13.50
2022-10-22T02:30:36.910Z,17.03
2022-10-22T02:33:11.917Z,14.17
2022-10-22T02:35:42.594Z,15.37
2022-10-22T02:38:11.971Z,14.67
2022-10-22T02:40:40.204Z,15.70
2022-10-22T02:43:08.434Z,15.37
2022-10-22T02:45:38.252Z,16.30
2022-10-22T02:48:06.934Z,16.30
2022-10-22T02:50:34.902Z,15.90
2022-10-22T02:53:02.848Z,16.77
2022-10-22T02:55:30.856Z,16.27
2022-10-22T02:57:58.772Z,17.17
2022-10-22T03:00:26.723Z,16.13
2022-10-22T03:02:56.059Z,18.00
2022-10-22T03:05:23.974Z,16.80
2022-10-22T03:07:51.908Z,17.60
2022-10-22T03:10:19.852Z,16.30
2022-10-22T03:12:48.313Z,15.80
2022-10-22T03:15:16.389Z,12.77
2022-10-22T03:17:44.357Z,19.07
2022-10-22T03:20:13.681Z,16.67
2022-10-22T03:22:43.462Z,17.17
2022-10-22T03:25:15.512Z,18.73
2022-10-22T03:27:44.021Z,17.33
2022-10-22T03:30:12.826Z,17.37
2022-10-22T03:32:40.922Z,16.57
2022-10-22T03:35:09.464Z,17.33
2022-10-22T03:37:39.900Z,19.37
2022-10-22T03:40:11.503Z,16.60
2022-10-22T03:42:39.657Z,13.70
2022-10-22T03:45:08.983Z,16.53
2022-10-22T03:47:37.960Z,14.70
2022-10-22T03:50:07.356Z,13.30
2022-10-22T03:52:39.452Z,16.37
2022-10-22T03:55:08.644Z,14.90
2022-10-22T03:57:36.751Z,15.30
2022-10-22T04:00:06.193Z,15.67
2022-10-22T04:02:34.171Z,15.83
2022-10-22T04:05:02.241Z,16.90
2022-10-22T04:07:30.270Z,16.47
2022-10-22T04:09:59.526Z,16.57
2022-10-22T04:12:27.583Z,13.80
2022-10-22T04:14:55.558Z,17.90
2022-10-22T04:17:23.596Z,16.57
2022-10-22T04:19:51.530Z,15.30
2022-10-22T04:22:19.446Z,20.73
2022-10-22T04:24:47.422Z,22.47
2022-10-22T04:27:16.744Z,21.47
2022-10-22T04:29:44.678Z,21.77
2022-10-22T04:32:12.638Z,20.00
2022-10-22T04:34:40.563Z,19.53
2022-10-22T04:37:08.494Z,14.57
2022-10-22T04:39:36.457Z,18.03
2022-10-22T04:42:04.838Z,15.87
2022-10-22T04:44:34.343Z,14.17
2022-10-22T04:47:02.260Z,16.93
2022-10-22T04:49:30.330Z,15.47
2022-10-22T04:51:58.267Z,14.03
2022-10-22T04:54:29.058Z,15.97
2022-10-22T04:57:00.235Z,14.80
2022-10-22T04:59:28.223Z,14.67
2022-10-22T05:01:57.502Z,14.97
2022-10-22T05:04:25.526Z,13.87
2022-10-22T05:06:53.567Z,21.10
2022-10-22T05:09:22.197Z,16.60
2022-10-22T05:11:52.537Z,23.03
2022-10-22T05:14:22.701Z,18.70
2022-10-22T05:16:51.019Z,19.47
2022-10-22T05:19:24.042Z,23.37
2022-10-22T05:21:52.222Z,19.93
2022-10-22T05:24:20.543Z,17.80
2022-10-22T05:26:50.810Z,20.57
2022-10-22T05:29:19.297Z,23.20
2022-10-22T05:31:47.524Z,18.67
2022-10-22T05:34:15.779Z,20.73
2022-10-22T05:36:45.439Z,23.13
2022-10-22T05:39:13.842Z,17.17
2022-10-22T05:41:41.828Z,17.30
2022-10-22T05:44:12.199Z,20.37
2022-10-22T05:46:40.244Z,21.77
2022-10-22T05:49:08.733Z,18.63
2022-10-22T05:51:38.264Z,20.37
2022-10-22T05:54:11.032Z,13.60
2022-10-22T05:56:39.889Z,19.80
2022-10-22T05:59:07.830Z,17.60
2022-10-22T06:01:36.383Z,19.17
2022-10-22T06:04:07.194Z,14.20
2022-10-22T06:06:40.014Z,17.87
2022-10-22T06:09:15.618Z,17.10
2022-10-22T06:11:43.698Z,21.87
2022-10-22T06:14:12.060Z,13.80
2022-10-22T06:16:40.645Z,17.47
2022-10-22T06:19:09.364Z,18.80
2022-10-22T06:21:37.310Z,15.03
2022-10-22T06:24:05.556Z,13.97
2022-10-22T06:26:34.888Z,16.47
2022-10-22T06:29:03.135Z,16.70
2022-10-22T06:31:36.602Z,15.47
2022-10-22T06:34:05.007Z,15.60
2022-10-22T06:36:32.997Z,15.47
2022-10-22T06:39:01.007Z,16.87
2022-10-22T06:41:29.765Z,18.73
2022-10-22T06:44:00.108Z,19.27
2022-10-22T06:46:28.309Z,18.33
2022-10-22T06:48:59.680Z,16.07
2022-10-22T06:51:28.709Z,17.23
2022-10-22T06:53:57.650Z,14.57
2022-10-22T06:56:28.455Z,16.70
2022-10-22T06:58:59.658Z,15.17
2022-10-22T07:01:30.162Z,16.93
2022-10-22T07:03:58.240Z,20.07
2022-10-22T07:06:27.533Z,14.80
2022-10-22T07:08:56.157Z,18.57
2022-10-22T07:11:26.496Z,15.82
2022-10-22T07:13:56.436Z,16.47
2022-10-22T07:16:29.648Z,18.47
2022-10-22T07:19:00.151Z,13.73
2022-10-22T07:21:28.461Z,14.40
2022-10-22T07:23:56.579Z,18.80
2022-10-22T07:26:27.144Z,17.00
2022-10-22T07:28:55.090Z,17.23
2022-10-22T07:31:23.031Z,16.97
2022-10-22T07:33:52.447Z,15.07
2022-10-22T07:36:20.521Z,18.37
2022-10-22T07:38:55.312Z,16.07
2022-10-22T07:41:23.697Z,18.93
2022-10-22T07:43:51.935Z,18.00
2022-10-22T07:46:20.292Z,18.55
2022-10-22T07:48:48.371Z,17.20
2022-10-22T07:51:18.308Z,18.93
2022-10-22T07:53:46.239Z,22.52
2022-10-22T07:56:14.347Z,19.08
2022-10-22T07:58:42.610Z,21.25
2022-10-22T08:01:10.602Z,18.33
2022-10-22T08:03:38.680Z,16.35
2022-10-22T08:06:07.280Z,16.77
2022-10-22T08:08:36.618Z,23.58
2022-10-22T08:11:04.637Z,21.83
2022-10-22T08:13:32.912Z,16.93
2022-10-22T08:16:01.846Z,25.02
2022-10-22T08:18:30.615Z,21.58
2022-10-22T08:20:59.306Z,19.30
2022-10-22T08:23:28.627Z,22.70
2022-10-22T08:25:59.617Z,22.93
2022-10-22T08:28:29.646Z,27.77
2022-10-22T08:30:57.679Z,20.23
2022-10-22T08:33:25.622Z,22.80
2022-10-22T08:35:54.191Z,20.30
2022-10-22T08:38:22.238Z,25.87
2022-10-22T08:40:52.701Z,24.00
2022-10-22T08:43:51.089Z,17.47
2022-10-22T08:46:29.493Z,19.27
2022-10-22T08:49:01.612Z,22.92
2022-10-22T08:51:32.752Z,24.30
2022-10-22T08:54:19.629Z,21.43
2022-10-22T08:56:54.333Z,20.17
2022-10-22T08:59:29.216Z,19.73
2022-10-22T09:01:57.206Z,19.33
2022-10-22T09:04:31.273Z,22.87
2022-10-22T09:07:00.860Z,21.90
2022-10-22T09:09:35.071Z,24.93
2022-10-22T09:12:05.042Z,22.73
2022-10-22T09:14:34.379Z,20.20
2022-10-22T09:17:15.072Z,21.20
2022-10-22T09:19:54.547Z,25.57
2022-10-22T09:22:30.798Z,21.93
2022-10-22T09:25:03.309Z,20.07
2022-10-22T09:27:32.733Z,19.40
2022-10-22T09:30:03.266Z,19.03
2022-10-22T09:32:32.437Z,22.73
2022-10-22T09:35:00.623Z,20.50
2022-10-22T09:37:30.963Z,17.83
2022-10-22T09:40:04.784Z,19.17
2022-10-22T09:42:34.929Z,21.55
2022-10-22T09:45:04.457Z,16.90
2022-10-22T09:47:43.354Z,24.70
2022-10-22T09:50:29.403Z,20.33
2022-10-22T09:53:01.603Z,21.25
2022-10-22T09:55:29.940Z,19.42
2022-10-22T09:58:00.825Z,27.83
2022-10-22T10:00:31.469Z,25.27
2022-10-22T10:03:01.003Z,20.38
2022-10-22T10:05:31.400Z,23.42
2022-10-22T10:08:01.774Z,22.55
2022-10-22T10:10:36.180Z,26.08
2022-10-22T10:13:14.408Z,23.75
2022-10-22T10:15:50.243Z,25.85
2022-10-22T10:18:31.941Z,28.38
2022-10-22T10:21:10.654Z,26.75
2022-10-22T10:23:47.901Z,28.10
2022-10-22T10:26:24.758Z,22.95
2022-10-22T10:29:14.296Z,22.77
2022-10-22T10:31:58.479Z,24.08
2022-10-22T10:34:37.379Z,24.90
2022-10-22T10:37:18.967Z,27.02
2022-10-22T10:40:11.299Z,18.27
2022-10-22T10:42:44.880Z,21.60
2022-10-22T10:45:19.729Z,19.27
2022-10-22T10:48:08.826Z,18.55
2022-10-22T10:50:44.396Z,17.60
2022-10-22T10:53:22.761Z,23.80
2022-10-22T10:56:00.664Z,20.25
2022-10-22T10:58:36.991Z,20.17
2022-10-22T11:01:15.367Z,17.52
2022-10-22T11:04:22.088Z,23.70
2022-10-22T11:06:51.552Z,24.40
2022-10-22T11:09:26.253Z,22.53
2022-10-22T11:11:58.956Z,23.43
2022-10-22T11:14:31.638Z,24.50
2022-10-22T11:17:06.197Z,26.43
2022-10-22T11:19:50.895Z,26.05
2022-10-22T11:22:27.238Z,25.63
2022-10-22T11:25:01.190Z,27.30
2022-10-22T11:27:37.094Z,26.85
2022-10-22T11:30:12.564Z,22.93
2022-10-22T11:32:42.604Z,24.87
2022-10-22T11:35:16.533Z,25.90
2022-10-22T11:37:46.716Z,24.47
2022-10-22T11:40:20.085Z,23.33
2022-10-22T11:42:51.779Z,26.77
2022-10-22T11:45:32.371Z,25.10
2022-10-22T11:48:07.307Z,25.17
2022-10-22T11:50:56.730Z,27.93
2022-10-22T11:53:32.266Z,26.83
2022-10-22T11:56:22.108Z,22.50
2022-10-22T11:58:53.729Z,23.07
2022-10-22T12:01:42.235Z,27.90
2022-10-22T12:04:22.561Z,24.97
2022-10-22T12:07:01.034Z,26.27
2022-10-22T12:09:32.407Z,23.60
2022-10-22T12:12:11.576Z,28.37
2022-10-22T12:14:53.305Z,20.53
2022-10-22T12:17:23.728Z,22.10
2022-10-22T12:19:58.528Z,27.10
2022-10-22T12:22:32.710Z,26.33
2022-10-22T12:25:03.173Z,27.37
2022-10-22T12:27:37.091Z,23.33
2022-10-22T12:30:19.223Z,22.43
2022-10-22T12:32:47.170Z,22.53
2022-10-22T12:35:19.827Z,20.17
2022-10-22T12:37:52.489Z,23.03
2022-10-22T12:40:22.733Z,24.33
2022-10-22T12:42:55.488Z,24.90
2022-10-22T12:45:26.927Z,22.10
2022-10-22T12:47:58.869Z,22.57
2022-10-22T12:50:33.934Z,26.57
2022-10-22T12:53:03.200Z,26.77
2022-10-22T12:55:34.798Z,26.03
2022-10-22T12:58:07.027Z,24.87
2022-10-22T13:00:37.300Z,26.67
2022-10-22T13:03:08.264Z,25.50
2022-10-22T13:05:39.784Z,23.83
2022-10-22T13:08:11.530Z,24.07
2022-10-22T13:10:41.220Z,22.37
2022-10-22T13:13:24.068Z,26.57
2022-10-22T13:15:52.007Z,24.77
2022-10-22T13:18:22.462Z,25.23
2022-10-22T13:20:55.140Z,25.90
2022-10-22T13:23:29.977Z,21.70
2022-10-22T13:26:00.354Z,25.37
2022-10-22T13:28:29.546Z,21.90
2022-10-22T13:30:59.887Z,27.30
2022-10-22T13:33:34.509Z,25.13
2022-10-22T13:36:02.826Z,24.40
2022-10-22T13:38:32.202Z,22.47
2022-10-22T13:41:00.688Z,25.97
2022-10-22T13:43:28.638Z,24.87
2022-10-22T13:45:59.999Z,26.93
2022-10-22T13:48:30.840Z,24.40
2022-10-22T13:50:59.008Z,22.83
2022-10-22T13:53:29.515Z,26.67
2022-10-22T13:55:58.842Z,31.47
2022-10-22T13:58:26.815Z,29.60
2022-10-22T14:00:57.089Z,26.60
2022-10-22T14:03:28.162Z,27.20
2022-10-22T14:05:56.290Z,28.23
2022-10-22T14:08:26.513Z,28.17
2022-10-22T14:10:54.687Z,28.47
2022-10-22T14:13:24.022Z,32.88
2022-10-22T14:15:53.274Z,23.48
2022-10-22T14:18:25.598Z,25.52
2022-10-22T14:20:56.022Z,25.70
2022-10-22T14:23:26.542Z,26.63
2022-10-22T14:25:54.967Z,24.67
2022-10-22T14:28:24.300Z,28.43
2022-10-22T14:30:53.054Z,27.07
2022-10-22T14:33:27.214Z,28.70
2022-10-22T14:36:00.176Z,28.83
2022-10-22T14:38:28.190Z,27.77
2022-10-22T14:40:56.547Z,30.83
2022-10-22T14:43:27.568Z,28.33
2022-10-22T14:45:56.076Z,29.83
2022-10-22T14:48:24.258Z,32.57
2022-10-22T14:50:52.255Z,28.47
2022-10-22T14:53:20.234Z,32.97
2022-10-22T14:55:49.225Z,26.03
2022-10-22T14:58:17.314Z,26.40
2022-10-22T15:00:46.690Z,28.77
2022-10-22T15:03:14.705Z,30.93
2022-10-22T15:05:44.367Z,29.83
2022-10-22T15:08:13.318Z,34.17
2022-10-22T15:10:41.621Z,33.30
2022-10-22T15:13:09.813Z,33.43
2022-10-22T15:15:39.749Z,30.97
2022-10-22T15:18:09.375Z,34.47
2022-10-22T15:20:37.334Z,30.83
2022-10-22T15:23:05.294Z,34.40
2022-10-22T15:25:33.535Z,31.10
2022-10-22T15:28:09.058Z,37.20
2022-10-22T15:30:38.051Z,36.40
2022-10-22T15:33:06.730Z,35.20
2022-10-22T15:35:36.019Z,35.77
2022-10-22T15:38:06.571Z,35.73
2022-10-22T15:40:34.549Z,38.97
2022-10-22T15:43:02.524Z,39.93
2022-10-22T15:45:30.450Z,46.00
2022-10-22T15:47:58.763Z,45.97
2022-10-22T15:50:26.749Z,44.57
2022-10-22T15:52:56.023Z,40.10
2022-10-22T15:55:23.934Z,40.43
2022-10-22T15:57:58.021Z,46.40
2022-10-22T16:00:28.694Z,46.07
2022-10-22T16:02:56.660Z,37.67
2022-10-22T16:05:24.935Z,40.50
2022-10-22T16:07:55.744Z,40.67
2022-10-22T16:10:25.473Z,39.43
2022-10-22T16:12:54.633Z,40.70
2022-10-22T16:15:22.628Z,39.13
2022-10-22T16:17:52.497Z,38.37
2022-10-22T16:20:20.460Z,36.87
2022-10-22T16:22:50.935Z,43.20
2022-10-22T16:25:18.917Z,41.03
2022-10-22T16:27:51.757Z,39.43
2022-10-22T16:30:19.696Z,37.57
2022-10-22T16:32:47.638Z,37.23
2022-10-22T16:35:15.697Z,38.33
2022-10-22T16:37:44.332Z,37.40
2022-10-22T16:40:13.602Z,39.30
2022-10-22T16:42:42.050Z,38.07
2022-10-22T16:45:11.800Z,37.33
2022-10-22T16:47:40.310Z,37.50
2022-10-22T16:50:09.656Z,39.83
2022-10-22T16:52:37.696Z,38.27
2022-10-22T16:55:06.234Z,38.03
2022-10-22T16:57:35.885Z,42.47
2022-10-22T17:00:04.828Z,42.97
2022-10-22T17:02:35.258Z,41.37
2022-10-22T17:05:03.208Z,40.37
2022-10-22T17:07:31.130Z,40.87
2022-10-22T17:09:59.057Z,42.00
2022-10-22T17:12:26.973Z,43.37
2022-10-22T17:14:54.931Z,41.63
2022-10-22T17:17:22.874Z,48.73
2022-10-22T17:19:52.170Z,40.33
2022-10-22T17:22:20.154Z,49.90
2022-10-22T17:24:48.092Z,44.90
2022-10-22T17:27:16.064Z,47.77
2022-10-22T17:29:43.982Z,42.17
2022-10-22T17:32:11.931Z,44.53
2022-10-22T17:34:40.448Z,47.27
2022-10-22T17:37:09.720Z,50.43
2022-10-22T17:39:37.686Z,50.03
2022-10-22T17:42:06.258Z,47.57
2022-10-22T17:44:34.172Z,52.20
2022-10-22T17:47:02.093Z,47.53
2022-10-22T17:49:30.008Z,48.93
2022-10-22T17:51:58.028Z,45.83
2022-10-22T17:54:27.302Z,47.27
2022-10-22T17:56:55.230Z,46.90
2022-10-22T17:59:23.162Z,47.67
2022-10-22T18:01:51.128Z,41.93
2022-10-22T18:04:22.035Z,47.23
2022-10-22T18:06:50.430Z,43.10
2022-10-22T18:09:19.708Z,41.80
2022-10-22T18:11:50.325Z,39.93
2022-10-22T18:14:19.116Z,42.97
2022-10-22T18:16:47.525Z,40.00
2022-10-22T18:19:17.552Z,42.15
2022-10-22T18:21:45.587Z,40.63
2022-10-22T18:24:15.584Z,44.15
2022-10-22T18:26:43.769Z,42.20
2022-10-22T18:29:17.146Z,44.92
2022-10-22T18:31:45.343Z,44.67
2022-10-22T18:34:13.722Z,45.90
2022-10-22T18:36:42.326Z,47.03
2022-10-22T18:39:13.387Z,47.57
2022-10-22T18:41:41.338Z,54.27
2022-10-22T18:44:09.511Z,53.87
2022-10-22T18:46:39.682Z,49.70
2022-10-22T18:49:08.373Z,49.33
2022-10-22T18:51:36.872Z,47.13
2022-10-22T18:54:21.392Z,44.10
2022-10-22T18:56:49.975Z,43.23
2022-10-22T18:59:20.898Z,46.97
2022-10-22T19:01:51.324Z,53.93
2022-10-22T19:04:19.398Z,49.90
2022-10-22T19:06:47.428Z,49.77
2022-10-22T19:09:16.083Z,49.70
2022-10-22T19:11:44.858Z,44.37
2022-10-22T19:14:14.708Z,42.63
2022-10-22T19:16:42.808Z,44.27
2022-10-22T19:19:16.369Z,42.07
2022-10-22T19:21:44.355Z,38.57
2022-10-22T19:24:13.091Z,41.33
2022-10-22T19:26:41.636Z,42.93
2022-10-22T19:29:10.943Z,42.63
2022-10-22T19:31:40.851Z,44.50
2022-10-22T19:34:08.797Z,49.53
2022-10-22T19:36:38.119Z,54.60
2022-10-22T19:39:07.696Z,51.70
2022-10-22T19:41:36.216Z,48.47
2022-10-22T19:44:04.251Z,46.20
2022-10-22T19:46:32.714Z,48.00
2022-10-22T19:49:02.604Z,44.43
2022-10-22T19:51:31.917Z,47.10
2022-10-22T19:54:03.233Z,54.40
2022-10-22T19:56:32.384Z,49.37
2022-10-22T19:59:00.620Z,48.13
2022-10-22T20:01:29.002Z,51.57
2022-10-22T20:03:57.088Z,56.63
2022-10-22T20:06:25.149Z,48.23
2022-10-22T20:08:55.964Z,44.80
2022-10-22T20:11:28.225Z,46.50
2022-10-22T20:13:56.667Z,45.70
2022-10-22T20:16:28.567Z,46.57
2022-10-22T20:19:00.047Z,48.13
2022-10-22T20:21:28.327Z,56.47
2022-10-22T20:23:57.484Z,57.63
2022-10-22T20:26:28.877Z,51.03
2022-10-22T20:28:57.511Z,48.53
2022-10-22T20:31:28.402Z,46.03
2022-10-22T20:33:57.800Z,46.57
2022-10-22T20:36:27.240Z,43.40
2022-10-22T20:39:00.740Z,43.33
2022-10-22T20:41:30.392Z,43.67
2022-10-22T20:43:58.329Z,39.00
2022-10-22T20:46:29.178Z,39.23
2022-10-22T20:49:00.317Z,41.27
2022-10-22T20:51:28.496Z,44.17
2022-10-22T20:53:56.490Z,46.40
2022-10-22T20:56:24.754Z,40.97
2022-10-22T20:59:04.098Z,41.07
2022-10-22T21:01:34.050Z,41.80
2022-10-22T21:04:01.978Z,38.33
2022-10-22T21:06:30.789Z,45.37
2022-10-22T21:08:58.843Z,43.90
2022-10-22T21:11:26.927Z,40.83
2022-10-22T21:13:56.255Z,40.63
2022-10-22T21:16:24.251Z,41.20
2022-10-22T21:18:52.571Z,39.80
2022-10-22T21:21:20.560Z,39.97
2022-10-22T21:23:50.187Z,36.53
2022-10-22T21:26:18.965Z,41.53
2022-10-22T21:28:47.165Z,41.57
2022-10-22T21:31:21.861Z,40.37
2022-10-22T21:33:50.800Z,35.17
2022-10-22T21:36:22.746Z,39.83
2022-10-22T21:38:51.887Z,42.70
2022-10-22T21:41:22.272Z,39.93
2022-10-22T21:43:50.993Z,45.77
2022-10-22T21:46:22.492Z,42.83
2022-10-22T21:48:54.744Z,44.73
2022-10-22T21:51:24.147Z,44.00
2022-10-22T21:56:27.311Z,39.83
2022-10-22T21:58:55.721Z,38.47
2022-10-22T22:01:25.569Z,43.00
2022-10-22T22:03:53.859Z,37.57
2022-10-22T22:06:24.181Z,44.90
2022-10-22T22:08:53.969Z,41.37
2022-10-22T22:11:24.012Z,40.43
2022-10-22T22:13:52.648Z,42.67
2022-10-22T22:16:28.116Z,41.23
2022-10-22T22:18:57.277Z,41.20
2022-10-22T22:21:25.308Z,39.23
2022-10-22T22:23:53.354Z,38.57
2022-10-22T22:26:26.704Z,39.10
2022-10-22T22:28:58.108Z,37.73
2022-10-22T22:31:29.627Z,38.67
2022-10-22T22:34:01.732Z,35.73
2022-10-22T22:36:33.136Z,38.90
2022-10-22T22:39:01.227Z,36.80
2022-10-22T22:41:29.167Z,31.63
2022-10-22T22:43:57.146Z,33.93
2022-10-22T22:46:25.204Z,39.53
2022-10-22T22:48:54.493Z,35.37
2022-10-22T22:51:22.699Z,39.83
2022-10-22T22:53:50.702Z,33.07
2022-10-22T22:56:21.323Z,34.83
2022-10-22T22:58:49.864Z,34.20
2022-10-22T23:01:19.526Z,35.60
2022-10-22T23:03:49.402Z,33.83
2022-10-22T23:06:18.719Z,37.00
2022-10-22T23:08:50.160Z,33.77
2022-10-22T23:11:18.205Z,32.50
2022-10-22T23:13:46.251Z,37.07
2022-10-22T23:16:16.056Z,33.80
2022-10-22T23:18:44.722Z,33.37
2022-10-22T23:21:15.406Z,30.57
2022-10-22T23:23:48.834Z,34.97
2022-10-22T23:26:19.397Z,39.67
2022-10-22T23:28:47.530Z,32.33
2022-10-22T23:31:16.438Z,36.23
2022-10-22T23:33:45.088Z,38.80
2022-10-22T23:36:13.778Z,33.67
2022-10-22T23:38:42.213Z,35.30
2022-10-22T23:41:11.942Z,38.57
2022-10-22T23:43:39.956Z,39.07
2022-10-22T23:46:10.273Z,37.87
2022-10-22T23:48:39.070Z,35.10
2022-10-22T23:51:08.636Z,36.43
2022-10-22T23:53:36.671Z,36.73
2022-10-22T23:56:06.198Z,35.43
2022-10-22T23:58:36.422Z,37.03
